createdAt,value
2017-11-09T00:00:46.060Z,17.73
2017-11-09T00:03:13.598Z,17.20
2017-11-09T00:05:47.020Z,16.30
2017-11-09T00:08:14.562Z,17.70
2017-11-09T00:10:42.095Z,17.43
2017-11-09T00:13:09.665Z,15.63
2017-11-09T00:15:37.204Z,16.37
2017-11-09T00:18:05.519Z,16.07
2017-11-09T00:20:33.055Z,14.20
2017-11-09T00:23:00.623Z,16.50
2017-11-09T00:25:28.164Z,14.70
2017-11-09T00:27:55.735Z,14.93
2017-11-09T00:30:23.266Z,14.90
2017-11-09T00:32:51.592Z,15.03
2017-11-09T00:35:19.128Z,14.90
2017-11-09T00:37:46.691Z,15.33
2017-11-09T00:40:14.233Z,15.30
2017-11-09T00:42:42.564Z,15.80
2017-11-09T00:45:10.103Z,16.60
2017-11-09T00:47:37.660Z,15.33
2017-11-09T00:50:05.203Z,16.33
2017-11-09T00:52:32.763Z,17.40
2017-11-09T00:55:00.300Z,16.27
2017-11-09T00:57:28.624Z,16.77
2017-11-09T00:59:56.155Z,15.53
2017-11-09T01:02:24.472Z,17.30
2017-11-09T01:04:52.009Z,16.77
2017-11-09T01:07:19.564Z,17.20
2017-11-09T01:09:47.096Z,16.60
2017-11-09T01:12:15.427Z,15.17
2017-11-09T01:14:42.963Z,16.03
2017-11-09T01:17:10.522Z,15.43
2017-11-09T01:19:38.056Z,15.23
2017-11-09T01:22:06.388Z,14.43
2017-11-09T01:24:33.937Z,13.93
2017-11-09T01:27:01.500Z,13.87
2017-11-09T01:29:29.036Z,13.43
2017-11-09T01:31:56.595Z,14.03
2017-11-09T01:34:24.124Z,14.20
2017-11-09T01:36:52.468Z,17.00
2017-11-09T01:39:20.002Z,14.93
2017-11-09T01:41:47.555Z,14.33
2017-11-09T01:44:15.110Z,16.03
2017-11-09T01:46:42.676Z,14.93
2017-11-09T01:49:10.212Z,16.00
2017-11-09T01:51:38.541Z,16.20
2017-11-09T01:54:06.849Z,15.50
2017-11-09T01:56:34.468Z,14.20
2017-11-09T01:59:02.004Z,14.50
2017-11-09T02:01:29.560Z,14.97
2017-11-09T02:03:57.171Z,13.70
2017-11-09T02:06:24.745Z,13.83
2017-11-09T02:08:52.280Z,15.67
2017-11-09T02:11:19.876Z,16.07
2017-11-09T02:13:47.402Z,15.10
2017-11-09T02:16:14.936Z,13.43
2017-11-09T02:18:42.493Z,12.70
2017-11-09T02:21:10.035Z,12.97
2017-11-09T02:23:37.599Z,13.73
2017-11-09T02:26:05.131Z,15.07
2017-11-09T02:28:32.696Z,13.37
2017-11-09T02:31:01.011Z,14.50
2017-11-09T02:33:28.573Z,13.60
2017-11-09T02:35:56.112Z,15.37
2017-11-09T02:38:23.683Z,14.43
2017-11-09T02:40:51.215Z,13.00
2017-11-09T02:43:19.552Z,13.07
2017-11-09T02:45:47.081Z,13.97
2017-11-09T02:48:14.631Z,13.40
2017-11-09T02:50:42.164Z,13.00
2017-11-09T02:53:10.502Z,14.23
2017-11-09T02:55:38.049Z,12.50
2017-11-09T02:58:05.609Z,13.67
2017-11-09T03:00:33.148Z,14.33
2017-11-09T03:03:00.711Z,13.60
2017-11-09T03:05:28.243Z,13.13
2017-11-09T03:07:56.567Z,16.03
2017-11-09T03:10:24.108Z,15.33
2017-11-09T03:12:51.667Z,15.63
2017-11-09T03:15:19.197Z,15.30
2017-11-09T03:17:46.758Z,15.93
2017-11-09T03:20:14.295Z,15.10
2017-11-09T03:22:41.843Z,17.00
2017-11-09T03:25:09.383Z,16.93
2017-11-09T03:27:36.948Z,16.93
2017-11-09T03:30:07.537Z,15.77
2017-11-09T03:32:35.107Z,16.33
2017-11-09T03:35:02.654Z,16.30
2017-11-09T03:37:30.233Z,16.13
2017-11-09T03:39:57.763Z,16.90
2017-11-09T03:42:25.324Z,17.87
2017-11-09T03:44:53.627Z,16.60
2017-11-09T03:47:21.951Z,15.63
2017-11-09T03:49:49.492Z,15.63
2017-11-09T03:52:17.053Z,15.83
2017-11-09T03:54:44.588Z,15.33
2017-11-09T03:57:12.144Z,13.93
2017-11-09T03:59:39.724Z,15.10
2017-11-09T04:02:07.285Z,16.10
2017-11-09T04:04:34.812Z,17.03
2017-11-09T04:07:03.140Z,15.10
2017-11-09T04:09:30.683Z,15.90
2017-11-09T04:11:58.239Z,15.40
2017-11-09T04:14:25.771Z,14.17
2017-11-09T04:16:54.099Z,14.50
2017-11-09T04:19:21.629Z,14.10
2017-11-09T04:21:49.161Z,16.27
2017-11-09T04:24:17.493Z,15.50
2017-11-09T04:26:45.020Z,15.33
2017-11-09T04:29:12.583Z,14.90
2017-11-09T04:31:40.111Z,15.20
2017-11-09T04:34:08.434Z,15.90
2017-11-09T04:36:35.974Z,16.00
2017-11-09T04:39:03.533Z,16.43
2017-11-09T04:41:31.063Z,16.53
2017-11-09T04:43:58.624Z,17.10
2017-11-09T04:46:26.161Z,16.03
2017-11-09T04:48:53.728Z,16.40
2017-11-09T04:51:21.255Z,16.50
2017-11-09T04:53:48.825Z,15.70
2017-11-09T04:56:16.360Z,16.10
2017-11-09T04:58:43.926Z,14.13
2017-11-09T05:01:11.508Z,16.90
2017-11-09T05:03:39.069Z,16.83
2017-11-09T05:06:06.604Z,15.73
2017-11-09T05:08:34.168Z,16.17
2017-11-09T05:11:01.705Z,16.07
2017-11-09T05:13:29.266Z,15.60
2017-11-09T05:15:56.800Z,15.83
2017-11-09T05:18:25.128Z,14.50
2017-11-09T05:20:52.662Z,15.77
2017-11-09T05:23:20.230Z,15.40
2017-11-09T05:25:47.760Z,14.10
2017-11-09T05:28:16.085Z,15.20
2017-11-09T05:30:43.727Z,16.53
2017-11-09T05:33:11.495Z,16.60
2017-11-09T05:35:39.326Z,16.10
2017-11-09T05:38:07.705Z,15.83
2017-11-09T05:40:36.091Z,17.50
2017-11-09T05:43:04.667Z,18.23
2017-11-09T05:45:32.200Z,16.37
2017-11-09T05:47:59.760Z,18.20
2017-11-09T05:50:27.300Z,17.20
2017-11-09T05:52:55.175Z,17.20
2017-11-09T05:55:22.744Z,16.10
2017-11-09T05:57:50.304Z,17.30
2017-11-09T06:00:17.831Z,17.23
2017-11-09T06:02:45.384Z,17.53
2017-11-09T06:05:12.911Z,17.07
2017-11-09T06:07:40.547Z,15.63
2017-11-09T06:10:08.884Z,18.23
2017-11-09T06:12:36.440Z,15.70
2017-11-09T06:15:03.988Z,16.30
2017-11-09T06:17:32.308Z,17.00
2017-11-09T06:19:59.840Z,16.23
2017-11-09T06:22:27.401Z,17.43
2017-11-09T06:24:54.931Z,17.57
2017-11-09T06:27:23.266Z,15.67
2017-11-09T06:29:50.808Z,17.57
2017-11-09T06:32:18.345Z,18.87
2017-11-09T06:34:46.670Z,17.30
2017-11-09T06:37:14.209Z,19.50
2017-11-09T06:39:41.769Z,19.00
2017-11-09T06:42:09.311Z,20.30
2017-11-09T06:44:36.876Z,18.17
2017-11-09T06:47:04.407Z,17.97
2017-11-09T06:49:32.731Z,17.40
2017-11-09T06:52:00.263Z,19.00
2017-11-09T06:54:27.827Z,20.30
2017-11-09T06:56:55.376Z,18.97
2017-11-09T06:59:23.705Z,21.27
2017-11-09T07:01:51.243Z,22.70
2017-11-09T07:04:18.808Z,19.17
2017-11-09T07:06:46.343Z,19.90
2017-11-09T07:09:13.901Z,18.50
2017-11-09T07:11:41.438Z,20.00
2017-11-09T07:14:09.785Z,19.50
2017-11-09T07:16:37.318Z,21.00
2017-11-09T07:19:04.885Z,19.87
2017-11-09T07:21:32.423Z,21.33
2017-11-09T07:23:59.983Z,20.40
2017-11-09T07:26:27.511Z,19.83
2017-11-09T07:28:55.072Z,19.47
2017-11-09T07:31:22.601Z,20.70
2017-11-09T07:33:50.932Z,21.17
2017-11-09T07:36:18.475Z,18.43
2017-11-09T07:38:46.797Z,18.90
2017-11-09T07:41:14.335Z,18.87
2017-11-09T07:43:41.904Z,19.70
2017-11-09T07:46:09.444Z,19.80
2017-11-09T07:48:37.768Z,20.17
2017-11-09T07:51:05.308Z,22.60
2017-11-09T07:53:32.873Z,21.73
2017-11-09T07:56:00.411Z,21.60
2017-11-09T07:58:27.976Z,21.30
2017-11-09T08:00:55.506Z,19.00
2017-11-09T08:03:23.840Z,20.13
2017-11-09T08:05:51.376Z,19.60
2017-11-09T08:08:18.932Z,20.47
2017-11-09T08:10:46.459Z,18.00
2017-11-09T08:13:14.797Z,21.07
2017-11-09T08:15:42.335Z,19.47
2017-11-09T08:18:09.896Z,19.37
2017-11-09T08:20:37.441Z,18.30
2017-11-09T08:23:05.001Z,20.07
2017-11-09T08:25:33.731Z,19.17
2017-11-09T08:28:02.458Z,22.17
2017-11-09T08:30:33.580Z,21.87
2017-11-09T08:33:01.705Z,21.07
2017-11-09T08:35:29.253Z,19.80
2017-11-09T08:37:56.817Z,18.53
2017-11-09T08:40:24.385Z,19.30
2017-11-09T08:42:51.917Z,18.13
2017-11-09T08:45:20.249Z,19.63
2017-11-09T08:47:48.023Z,19.73
2017-11-09T08:50:15.593Z,18.10
2017-11-09T08:52:43.132Z,18.30
2017-11-09T08:55:10.692Z,18.03
2017-11-09T08:57:38.224Z,21.70
2017-11-09T09:00:05.784Z,18.10
2017-11-09T09:02:33.325Z,18.77
2017-11-09T09:05:00.894Z,19.30
2017-11-09T09:07:28.428Z,19.87
2017-11-09T09:09:56.765Z,19.53
2017-11-09T09:12:24.303Z,18.10
2017-11-09T09:14:51.861Z,19.40
2017-11-09T09:17:19.396Z,20.93
2017-11-09T09:19:47.725Z,21.37
2017-11-09T09:22:25.994Z,20.63
2017-11-09T09:24:57.024Z,22.40
2017-11-09T09:27:35.253Z,26.47
2017-11-09T09:30:18.992Z,20.93
2017-11-09T09:32:51.452Z,24.70
2017-11-09T09:35:26.201Z,22.77
2017-11-09T09:38:07.936Z,25.13
2017-11-09T09:40:37.857Z,22.60
2017-11-09T09:43:05.397Z,21.27
2017-11-09T09:45:32.958Z,20.80
2017-11-09T09:48:00.486Z,23.20
2017-11-09T09:50:28.049Z,23.17
2017-11-09T09:52:55.576Z,24.13
2017-11-09T09:55:23.905Z,22.80
2017-11-09T09:57:51.448Z,24.73
2017-11-09T10:00:19.000Z,22.80
2017-11-09T10:02:46.535Z,21.97
2017-11-09T10:05:14.856Z,22.50
2017-11-09T10:07:42.411Z,26.17
2017-11-09T10:10:09.975Z,22.50
2017-11-09T10:12:37.508Z,23.47
2017-11-09T10:15:05.069Z,22.90
2017-11-09T10:17:32.603Z,22.43
2017-11-09T10:20:00.929Z,22.37
2017-11-09T10:22:28.472Z,21.83
2017-11-09T10:24:56.036Z,22.23
2017-11-09T10:27:23.567Z,20.83
2017-11-09T10:29:51.144Z,21.33
2017-11-09T10:32:18.684Z,21.83
2017-11-09T10:34:47.001Z,21.30
2017-11-09T10:37:14.549Z,21.77
2017-11-09T10:39:42.107Z,23.57
2017-11-09T10:42:09.639Z,23.83
2017-11-09T10:44:37.975Z,25.60
2017-11-09T10:47:05.518Z,22.40
2017-11-09T10:49:33.047Z,21.23
2017-11-09T10:52:00.621Z,22.80
2017-11-09T10:54:28.169Z,21.10
2017-11-09T10:56:55.731Z,20.97
2017-11-09T10:59:23.276Z,21.27
2017-11-09T11:01:51.593Z,20.10
2017-11-09T11:04:19.132Z,21.30
2017-11-09T11:06:46.694Z,21.17
2017-11-09T11:09:14.228Z,21.07
2017-11-09T11:11:42.577Z,21.37
2017-11-09T11:14:10.113Z,22.50
2017-11-09T11:16:37.675Z,21.67
2017-11-09T11:19:05.219Z,19.83
2017-11-09T11:21:32.777Z,21.00
2017-11-09T11:24:00.328Z,20.40
2017-11-09T11:26:27.892Z,21.30
2017-11-09T11:28:55.428Z,22.03
2017-11-09T11:31:23.763Z,21.80
2017-11-09T11:33:51.307Z,21.77
2017-11-09T11:36:18.871Z,22.50
2017-11-09T11:38:46.405Z,22.00
2017-11-09T11:41:13.968Z,22.67
2017-11-09T11:43:41.503Z,20.77
2017-11-09T11:46:12.832Z,21.93
2017-11-09T11:48:40.374Z,24.20
2017-11-09T11:51:07.937Z,23.40
2017-11-09T11:53:35.474Z,23.23
2017-11-09T11:56:03.024Z,22.50
2017-11-09T11:58:30.558Z,23.20
2017-11-09T12:00:58.884Z,22.83
2017-11-09T12:03:26.425Z,22.10
2017-11-09T12:05:53.995Z,21.63
2017-11-09T12:08:21.530Z,21.83
2017-11-09T12:10:49.094Z,22.30
2017-11-09T12:13:18.561Z,20.73
2017-11-09T12:15:46.134Z,22.70
2017-11-09T12:18:14.441Z,21.67
2017-11-09T12:20:41.997Z,21.70
2017-11-09T12:23:09.525Z,21.70
2017-11-09T12:25:37.868Z,19.77
2017-11-09T12:28:05.419Z,19.00
2017-11-09T12:30:32.976Z,18.97
2017-11-09T12:33:00.511Z,20.20
2017-11-09T12:35:28.068Z,19.37
2017-11-09T12:37:55.629Z,21.07
2017-11-09T12:40:23.164Z,17.20
2017-11-09T12:42:51.487Z,19.03
2017-11-09T12:45:31.648Z,18.93
2017-11-09T12:47:59.984Z,18.93
2017-11-09T12:50:27.532Z,18.60
2017-11-09T12:52:55.859Z,19.00
2017-11-09T12:55:23.401Z,19.30
2017-11-09T12:57:50.980Z,17.40
2017-11-09T13:00:18.539Z,18.80
2017-11-09T13:02:46.105Z,17.43
2017-11-09T13:05:13.649Z,18.20
2017-11-09T13:07:41.216Z,18.13
2017-11-09T13:10:08.751Z,21.33
2017-11-09T13:12:36.317Z,17.23
2017-11-09T13:15:03.853Z,17.13
2017-11-09T13:17:32.177Z,17.97
2017-11-09T13:19:59.721Z,15.80
2017-11-09T13:22:27.283Z,16.77
2017-11-09T13:24:54.821Z,19.37
2017-11-09T13:27:22.378Z,17.13
2017-11-09T13:29:50.676Z,17.07
2017-11-09T13:32:18.250Z,17.10
2017-11-09T13:34:45.792Z,17.67
2017-11-09T13:37:13.359Z,15.60
2017-11-09T13:39:40.909Z,15.80
2017-11-09T13:42:08.471Z,15.60
2017-11-09T13:44:36.026Z,15.90
2017-11-09T13:47:03.590Z,15.60
2017-11-09T13:49:31.124Z,15.30
2017-11-09T13:51:59.452Z,15.10
2017-11-09T13:54:26.980Z,15.63
2017-11-09T13:56:54.540Z,14.43
2017-11-09T13:59:22.080Z,14.70
2017-11-09T14:01:50.409Z,15.43
2017-11-09T14:04:17.945Z,15.50
2017-11-09T14:06:45.509Z,15.53
2017-11-09T14:09:13.061Z,15.90
2017-11-09T14:11:40.615Z,15.97
2017-11-09T14:14:08.149Z,14.33
2017-11-09T14:16:36.478Z,15.97
2017-11-09T14:19:04.012Z,17.07
2017-11-09T14:21:31.577Z,16.97
2017-11-09T14:23:59.119Z,14.93
2017-11-09T14:26:27.439Z,16.20
2017-11-09T14:28:54.972Z,17.33
2017-11-09T14:31:22.531Z,15.47
2017-11-09T14:33:50.064Z,16.90
2017-11-09T14:36:18.393Z,17.30
2017-11-09T14:38:50.466Z,17.67
2017-11-09T14:41:18.036Z,17.80
2017-11-09T14:43:45.575Z,16.30
2017-11-09T14:46:13.141Z,21.47
2017-11-09T14:48:40.675Z,25.73
2017-11-09T14:51:08.240Z,17.37
2017-11-09T14:53:35.767Z,18.43
2017-11-09T14:56:04.068Z,17.00
2017-11-09T14:58:31.633Z,16.90
2017-11-09T15:00:59.160Z,16.80
2017-11-09T15:03:27.484Z,15.80
2017-11-09T15:05:55.029Z,17.67
2017-11-09T15:08:22.584Z,16.77
2017-11-09T15:10:50.123Z,16.03
2017-11-09T15:13:18.461Z,16.70
2017-11-09T15:15:51.705Z,15.70
2017-11-09T15:18:20.035Z,24.90
2017-11-09T15:20:47.578Z,20.90
2017-11-09T15:23:15.136Z,18.43
2017-11-09T15:25:42.671Z,21.30
2017-11-09T15:28:10.239Z,19.67
2017-11-09T15:30:37.796Z,17.77
2017-11-09T15:33:07.288Z,17.67
2017-11-09T15:35:36.769Z,21.27
2017-11-09T15:38:04.331Z,20.87
2017-11-09T15:40:31.868Z,20.50
2017-11-09T15:42:59.425Z,19.10
2017-11-09T15:45:26.964Z,18.40
2017-11-09T15:47:54.526Z,18.50
2017-11-09T15:50:22.069Z,16.03
2017-11-09T15:52:49.628Z,16.97
2017-11-09T15:55:17.167Z,16.57
2017-11-09T15:57:45.485Z,15.33
2017-11-09T16:00:13.020Z,15.67
2017-11-09T16:02:40.581Z,16.50
2017-11-09T16:05:08.115Z,16.77
2017-11-09T16:07:39.392Z,15.00
2017-11-09T16:10:06.935Z,15.03
2017-11-09T16:12:35.270Z,17.17
2017-11-09T16:15:02.808Z,15.60
2017-11-09T16:17:31.138Z,15.80
2017-11-09T16:19:59.448Z,15.70
2017-11-09T16:22:27.007Z,16.97
2017-11-09T16:24:54.557Z,15.80
2017-11-09T16:27:22.923Z,14.90
2017-11-09T16:29:50.473Z,16.90
2017-11-09T16:32:18.802Z,16.30
2017-11-09T16:34:46.337Z,17.13
2017-11-09T16:37:13.916Z,17.57
2017-11-09T16:39:41.457Z,17.07
2017-11-09T16:42:09.021Z,16.20
2017-11-09T16:44:36.566Z,18.70
2017-11-09T16:47:04.399Z,16.57
2017-11-09T16:49:32.003Z,17.20
2017-11-09T16:51:59.625Z,16.90
2017-11-09T16:54:27.166Z,17.97
2017-11-09T16:56:54.825Z,17.27
2017-11-09T16:59:22.358Z,17.37
2017-11-09T17:01:49.891Z,19.60
2017-11-09T17:04:17.447Z,17.20
2017-11-09T17:06:45.765Z,16.20
2017-11-09T17:09:13.330Z,16.43
2017-11-09T17:11:40.887Z,19.47
2017-11-09T17:14:08.443Z,17.10
2017-11-09T17:16:35.976Z,17.43
2017-11-09T17:19:03.541Z,19.80
2017-11-09T17:21:31.076Z,22.47
2017-11-09T17:23:59.405Z,20.80
2017-11-09T17:26:27.136Z,20.10
2017-11-09T17:28:54.699Z,18.27
2017-11-09T17:31:22.241Z,18.03
2017-11-09T17:33:50.576Z,20.20
2017-11-09T17:36:18.115Z,19.90
2017-11-09T17:38:45.692Z,17.87
2017-11-09T17:41:16.025Z,19.77
2017-11-09T17:43:48.532Z,18.80
2017-11-09T17:46:16.844Z,17.97
2017-11-09T17:48:44.409Z,16.30
2017-11-09T17:51:13.728Z,19.10
2017-11-09T17:53:41.292Z,19.67
2017-11-09T17:56:09.595Z,18.17
2017-11-09T17:58:38.116Z,16.57
2017-11-09T18:01:05.659Z,19.13
2017-11-09T18:03:34.786Z,17.37
2017-11-09T18:06:02.329Z,18.70
2017-11-09T18:08:29.892Z,18.73
2017-11-09T18:10:57.436Z,18.03
2017-11-09T18:13:25.763Z,19.60
2017-11-09T18:15:53.287Z,19.87
2017-11-09T18:18:20.952Z,21.63
2017-11-09T18:20:48.532Z,16.60
2017-11-09T18:23:16.097Z,20.23
2017-11-09T18:25:43.627Z,18.20
2017-11-09T18:28:11.200Z,19.83
2017-11-09T18:30:38.735Z,19.60
2017-11-09T18:33:06.303Z,20.50
2017-11-09T18:35:33.843Z,20.43
2017-11-09T18:38:02.184Z,21.87
2017-11-09T18:40:29.733Z,19.57
2017-11-09T18:42:57.274Z,21.13
2017-11-09T18:45:24.836Z,19.50
2017-11-09T18:47:52.363Z,18.97
2017-11-09T18:50:20.684Z,22.53
2017-11-09T18:52:48.258Z,19.83
2017-11-09T18:55:15.831Z,19.77
2017-11-09T18:57:43.369Z,21.77
2017-11-09T19:00:10.927Z,22.50
2017-11-09T19:02:38.473Z,20.97
2017-11-09T19:05:06.028Z,19.77
2017-11-09T19:07:33.569Z,20.60
2017-11-09T19:10:01.140Z,21.23
2017-11-09T19:12:28.683Z,20.83
2017-11-09T19:14:57.008Z,22.53
2017-11-09T19:17:24.549Z,22.80
2017-11-09T19:19:52.896Z,25.87
2017-11-09T19:22:21.212Z,29.90
2017-11-09T19:24:48.779Z,28.57
2017-11-09T19:27:16.313Z,23.93
2017-11-09T19:29:43.877Z,24.13
2017-11-09T19:32:11.409Z,21.20
2017-11-09T19:34:39.744Z,24.43
2017-11-09T19:37:07.278Z,26.70
2017-11-09T19:39:34.830Z,23.10
2017-11-09T19:42:02.372Z,24.13
2017-11-09T19:44:30.695Z,25.23
2017-11-09T19:46:58.232Z,24.43
2017-11-09T19:49:25.796Z,23.27
2017-11-09T19:51:53.332Z,24.27
2017-11-09T19:54:21.656Z,21.77
2017-11-09T19:56:49.197Z,24.83
2017-11-09T19:59:16.762Z,26.63
2017-11-09T20:01:44.297Z,26.77
2017-11-09T20:04:11.864Z,26.47
2017-11-09T20:06:39.400Z,24.90
2017-11-09T20:09:07.732Z,25.17
2017-11-09T20:11:35.266Z,25.67
2017-11-09T20:14:02.827Z,25.40
2017-11-09T20:16:30.379Z,22.83
2017-11-09T20:18:57.945Z,23.40
2017-11-09T20:21:25.497Z,22.60
2017-11-09T20:23:53.061Z,21.67
2017-11-09T20:26:20.612Z,24.20
2017-11-09T20:28:48.176Z,23.13
2017-11-09T20:31:15.706Z,23.17
2017-11-09T20:33:43.268Z,25.17
2017-11-09T20:36:11.583Z,24.03
2017-11-09T20:38:39.128Z,22.67
2017-11-09T20:41:06.681Z,25.90
2017-11-09T20:43:34.986Z,22.60
2017-11-09T20:46:04.484Z,23.00
2017-11-09T20:48:32.015Z,23.13
2017-11-09T20:51:00.344Z,24.50
2017-11-09T20:53:30.686Z,22.00
2017-11-09T20:55:58.253Z,23.87
2017-11-09T20:58:25.827Z,22.67
2017-11-09T21:00:53.401Z,23.73
2017-11-09T21:03:21.703Z,23.77
2017-11-09T21:05:49.307Z,23.90
2017-11-09T21:08:16.845Z,22.80
2017-11-09T21:10:44.399Z,23.93
2017-11-09T21:13:11.937Z,21.23
2017-11-09T21:15:39.498Z,26.70
2017-11-09T21:18:07.040Z,22.17
2017-11-09T21:20:35.368Z,21.97
2017-11-09T21:23:02.956Z,25.27
2017-11-09T21:25:30.524Z,23.10
2017-11-09T21:27:58.838Z,24.97
2017-11-09T21:30:26.421Z,24.67
2017-11-09T21:32:53.969Z,24.40
2017-11-09T21:35:21.535Z,22.87
2017-11-09T21:37:49.073Z,24.20
2017-11-09T21:40:16.631Z,22.10
2017-11-09T21:42:44.174Z,23.03
2017-11-09T21:45:12.507Z,23.00
2017-11-09T21:47:40.066Z,24.57
2017-11-09T21:50:07.635Z,25.40
2017-11-09T21:52:35.168Z,25.53
2017-11-09T21:55:02.732Z,24.07
2017-11-09T21:57:30.266Z,27.67
2017-11-09T21:59:57.840Z,24.90
2017-11-09T22:02:25.383Z,23.33
2017-11-09T22:04:52.956Z,26.77
2017-11-09T22:07:20.657Z,24.43
2017-11-09T22:09:49.007Z,25.50
2017-11-09T22:12:16.547Z,24.00
2017-11-09T22:14:44.129Z,24.20
2017-11-09T22:17:11.721Z,23.27
2017-11-09T22:19:39.289Z,24.67
2017-11-09T22:22:06.824Z,23.20
2017-11-09T22:24:34.420Z,24.60
2017-11-09T22:27:01.953Z,23.90
2017-11-09T22:29:29.573Z,28.00
2017-11-09T22:51:22.272Z,26.10
2017-11-09T22:53:51.747Z,23.90
2017-11-09T22:56:19.317Z,24.20
2017-11-09T22:58:46.861Z,25.00
2017-11-09T23:01:15.240Z,26.70
2017-11-09T23:06:36.660Z,25.77
2017-11-09T23:09:04.961Z,24.40
2017-11-09T23:11:32.524Z,25.57
2017-11-09T23:14:00.055Z,26.03
2017-11-09T23:16:27.615Z,25.73
2017-11-09T23:18:55.152Z,24.13
2017-11-09T23:21:22.719Z,24.07
2017-11-09T23:23:50.260Z,26.60
2017-11-09T23:26:17.819Z,25.03
2017-11-09T23:28:45.364Z,23.50
2017-11-09T23:31:12.924Z,23.83
2017-11-09T23:33:40.466Z,23.57
2017-11-09T23:36:08.875Z,24.77
2017-11-09T23:38:37.189Z,24.17
2017-11-09T23:41:04.802Z,21.90
2017-11-09T23:43:32.339Z,23.63
2017-11-09T23:45:59.903Z,24.00
2017-11-09T23:48:27.431Z,25.20
2017-11-09T23:50:55.747Z,22.50
2017-11-09T23:53:23.283Z,20.90
2017-11-09T23:55:50.876Z,22.77
